Time;durP1;ratioP1;P1;durP2;ratioP2;P2;SDS_P1;SDS_P2;PMS_P1;PMS_P2;Temp;Humidity;BMP_temperature;BMP_pressure;BME280_temperature;BME280_humidity;BME280_pressure;Samples;Min_cycle;Max_cycle;Signal;HPM_P1;HPM_P2
2021/03/22 00:02:39;;;;;;;17.38;10.05;;;22.70;28.40;;;;;;6094242;28;86354;-64
2021/03/22 00:05:40;;;;;;;15.27;9.75;;;22.70;28.60;;;;;;6124837;28;82956;-64
2021/03/22 00:08:40;;;;;;;13.88;9.07;;;22.70;28.60;;;;;;6129213;28;82865;-64
2021/03/22 00:11:41;;;;;;;23.13;10.20;;;22.70;28.70;;;;;;6128813;28;81019;-63
2021/03/22 00:14:42;;;;;;;15.07;8.77;;;22.70;28.60;;;;;;6126462;28;83434;-63
2021/03/22 00:17:42;;;;;;;13.77;8.50;;;22.60;28.30;;;;;;6128542;28;82816;-63
2021/03/22 00:20:43;;;;;;;13.13;8.10;;;22.70;28.40;;;;;;6129447;28;81248;-63
2021/03/22 00:23:43;;;;;;;12.13;8.00;;;22.70;28.50;;;;;;6126604;28;81757;-63
2021/03/22 00:26:44;;;;;;;11.55;7.60;;;22.70;28.60;;;;;;6130139;28;80903;-63
2021/03/22 00:29:45;;;;;;;13.77;8.20;;;22.60;28.90;;;;;;6128492;28;80279;-63
2021/03/22 00:32:45;;;;;;;14.07;8.50;;;22.60;28.50;;;;;;6133231;28;81388;-63
2021/03/22 00:35:46;;;;;;;11.98;8.05;;;22.60;28.60;;;;;;6134464;28;81062;-62
2021/03/22 00:38:46;;;;;;;11.65;7.13;;;22.60;28.20;;;;;;6133504;28;80503;-63
2021/03/22 00:41:47;;;;;;;11.93;7.38;;;22.60;28.50;;;;;;6132570;28;80754;-63
2021/03/22 00:44:47;;;;;;;12.48;7.05;;;22.60;29.00;;;;;;6129413;28;81332;-63
2021/03/22 00:47:48;;;;;;;11.55;6.53;;;22.60;28.70;;;;;;6132240;28;80886;-62
2021/03/22 00:50:49;;;;;;;10.73;6.93;;;22.60;28.50;;;;;;6131311;28;80608;-64
2021/03/22 00:53:49;;;;;;;9.65;6.60;;;22.60;28.40;;;;;;6116239;28;82739;-63
2021/03/22 00:56:50;;;;;;;11.02;6.45;;;22.60;28.60;;;;;;6134963;28;80552;-62
2021/03/22 00:59:51;;;;;;;9.85;6.00;;;22.60;28.60;;;;;;6127883;28;81798;-62
2021/03/22 01:02:51;;;;;;;9.05;6.03;;;22.60;28.40;;;;;;6116951;28;83303;-63
2021/03/22 01:05:52;;;;;;;10.93;6.50;;;22.60;28.40;;;;;;6125710;28;80695;-63
2021/03/22 01:08:52;;;;;;;9.45;6.20;;;22.60;28.70;;;;;;6131213;28;80995;-63
2021/03/22 01:11:53;;;;;;;10.07;5.97;;;22.60;28.60;;;;;;6131865;28;81816;-63
2021/03/22 01:14:53;;;;;;;8.05;5.55;;;22.60;29.00;;;;;;6133646;28;81227;-63
2021/03/22 01:17:55;;;;;;;7.90;5.28;;;22.60;28.60;;;;;;6137389;28;81101;-63
2021/03/22 01:20:55;;;;;;;7.60;5.38;;;22.60;28.70;;;;;;6128063;28;81256;-63
2021/03/22 01:23:56;;;;;;;7.13;5.50;;;22.60;28.50;;;;;;6132454;28;80779;-63
2021/03/22 01:26:56;;;;;;;8.52;5.68;;;22.60;28.90;;;;;;6132457;28;81686;-63
2021/03/22 01:29:57;;;;;;;8.07;5.05;;;22.60;28.50;;;;;;6133219;28;81003;-63
2021/03/22 01:32:59;;;;;;;9.02;5.50;;;22.60;28.70;;;;;;6131731;28;80826;-62
2021/03/22 01:35:59;;;;;;;8.70;5.63;;;22.60;28.70;;;;;;6132881;28;81618;-63
2021/03/22 01:39:00;;;;;;;7.38;5.25;;;22.60;28.60;;;;;;6133561;28;80497;-64
2021/03/22 01:42:01;;;;;;;7.82;5.22;;;22.60;28.90;;;;;;6132306;28;81081;-64
2021/03/22 01:45:01;;;;;;;7.90;4.80;;;22.60;28.60;;;;;;6133311;28;80631;-65
2021/03/22 01:48:02;;;;;;;8.75;4.35;;;22.60;29.00;;;;;;6129599;28;81297;-64
2021/03/22 01:51:03;;;;;;;6.82;4.60;;;22.60;28.80;;;;;;6129514;28;80702;-64
2021/03/22 01:54:03;;;;;;;7.28;4.50;;;22.60;29.00;;;;;;6134759;28;81788;-64
2021/03/22 01:57:04;;;;;;;6.43;4.43;;;22.50;28.60;;;;;;6131806;28;80470;-64
2021/03/22 02:00:04;;;;;;;9.70;5.60;;;22.60;28.50;;;;;;6131922;28;80323;-65
2021/03/22 02:03:05;;;;;;;6.63;4.80;;;22.50;28.20;;;;;;6131088;28;81060;-66
2021/03/22 02:06:07;;;;;;;9.90;5.28;;;22.50;28.40;;;;;;6133318;28;80272;-65
2021/03/22 02:09:07;;;;;;;6.60;4.68;;;22.60;28.90;;;;;;6129504;28;80415;-65
2021/03/22 02:12:08;;;;;;;7.63;4.50;;;22.50;28.50;;;;;;6129460;28;80393;-65
2021/03/22 02:15:08;;;;;;;6.85;4.30;;;22.50;28.80;;;;;;6125927;28;81034;-64
2021/03/22 02:18:09;;;;;;;7.60;4.97;;;22.50;28.40;;;;;;6129434;28;84865;-64
2021/03/22 02:21:09;;;;;;;5.85;3.88;;;22.50;28.50;;;;;;6123993;28;80771;-64
2021/03/22 02:24:10;;;;;;;6.60;4.53;;;22.50;28.60;;;;;;6130943;28;81845;-65
2021/03/22 02:27:11;;;;;;;7.45;3.72;;;22.50;28.60;;;;;;6129976;28;80564;-65
2021/03/22 02:30:11;;;;;;;9.85;4.57;;;22.50;28.10;;;;;;6129905;28;80446;-66
2021/03/22 02:33:12;;;;;;;7.10;4.20;;;22.50;28.60;;;;;;6127452;28;80129;-66
2021/03/22 02:36:12;;;;;;;5.63;3.95;;;22.50;28.30;;;;;;6112642;28;82208;-66
2021/03/22 02:39:13;;;;;;;6.75;3.75;;;22.50;28.40;;;;;;6125668;28;80620;-67
2021/03/22 02:42:13;;;;;;;6.57;4.50;;;22.60;28.30;;;;;;6127072;28;80909;-66
2021/03/22 02:45:14;;;;;;;6.07;4.13;;;22.50;28.30;;;;;;6130521;28;80997;-66
2021/03/22 02:48:14;;;;;;;6.93;4.45;;;22.50;28.60;;;;;;6134953;28;80494;-66
2021/03/22 02:51:15;;;;;;;6.10;4.03;;;22.50;28.40;;;;;;6113696;28;83530;-66
2021/03/22 02:54:15;;;;;;;6.70;4.05;;;22.50;28.40;;;;;;6131200;28;80835;-67
2021/03/22 02:57:16;;;;;;;7.88;4.32;;;22.50;28.20;;;;;;6130396;28;80744;-67
2021/03/22 03:00:16;;;;;;;6.20;3.70;;;22.50;28.40;;;;;;6128906;28;83398;-66
2021/03/22 03:03:17;;;;;;;7.22;3.70;;;22.50;28.50;;;;;;6105966;28;80930;-66
2021/03/22 03:06:17;;;;;;;5.68;3.80;;;22.50;28.40;;;;;;6129880;28;84276;-67
2021/03/22 03:09:18;;;;;;;7.05;3.72;;;22.50;28.60;;;;;;6133149;28;80481;-66
2021/03/22 03:12:19;;;;;;;4.45;3.25;;;22.50;28.40;;;;;;6128587;28;81807;-65
2021/03/22 03:15:19;;;;;;;5.68;3.30;;;22.50;28.30;;;;;;6125256;28;81237;-65
2021/03/22 03:18:20;;;;;;;4.68;3.25;;;22.50;28.60;;;;;;6130216;28;81055;-65
2021/03/22 03:21:20;;;;;;;6.03;3.70;;;22.50;28.40;;;;;;6129320;28;80494;-65
2021/03/22 03:24:21;;;;;;;5.97;3.55;;;22.50;28.50;;;;;;6131393;28;80898;-65
2021/03/22 03:27:21;;;;;;;4.47;3.38;;;22.50;28.50;;;;;;6126879;28;81055;-65
2021/03/22 03:30:22;;;;;;;5.55;3.60;;;22.50;28.60;;;;;;6130276;28;80809;-65
2021/03/22 03:33:22;;;;;;;4.30;3.03;;;22.50;29.00;;;;;;6129404;28;81407;-65
2021/03/22 03:36:23;;;;;;;4.63;3.03;;;22.50;28.90;;;;;;6130956;28;80974;-65
2021/03/22 03:39:24;;;;;;;5.38;3.17;;;22.50;28.90;;;;;;6125225;28;82795;-64
2021/03/22 03:42:24;;;;;;;4.53;3.03;;;22.50;28.70;;;;;;6130644;28;81540;-65
2021/03/22 03:45:25;;;;;;;4.07;2.90;;;22.50;28.70;;;;;;6130875;28;80587;-64
2021/03/22 03:48:25;;;;;;;4.80;2.70;;;22.50;28.50;;;;;;6118158;28;80227;-65
2021/03/22 03:51:26;;;;;;;4.90;2.75;;;22.50;28.80;;;;;;6129258;28;81102;-65
2021/03/22 03:54:26;;;;;;;5.90;3.38;;;22.50;28.50;;;;;;6108850;28;83736;-65
2021/03/22 03:57:28;;;;;;;4.85;3.13;;;22.50;28.70;;;;;;6128816;28;81322;-65
2021/03/22 04:00:28;;;;;;;4.68;3.08;;;22.50;28.50;;;;;;6129373;28;80568;-65
2021/03/22 04:03:31;;;;;;;4.30;3.05;;;22.50;28.40;;;;;;6129018;28;88762;-65
2021/03/22 04:06:31;;;;;;;6.32;3.53;;;22.50;28.60;;;;;;6112209;28;81625;-65
2021/03/22 04:09:32;;;;;;;3.60;2.47;;;22.50;28.40;;;;;;6127965;28;81304;-65
2021/03/22 04:12:32;;;;;;;4.93;3.33;;;22.50;28.60;;;;;;6070237;28;81976;-65
2021/03/22 04:15:33;;;;;;;5.00;3.10;;;22.60;28.40;;;;;;6124890;28;80592;-64
2021/03/22 04:18:34;;;;;;;3.95;2.70;;;22.60;28.00;;;;;;6105821;28;83695;-64
2021/03/22 04:21:34;;;;;;;6.28;3.33;;;22.50;27.70;;;;;;6129817;28;84129;-64
2021/03/22 04:24:35;;;;;;;6.53;3.25;;;22.60;27.60;;;;;;6113173;28;83613;-65
2021/03/22 04:27:35;;;;;;;5.57;2.70;;;22.60;27.30;;;;;;6129407;28;81643;-65
2021/03/22 04:30:36;;;;;;;6.05;3.20;;;22.60;27.10;;;;;;6129450;28;81109;-64
2021/03/22 04:33:36;;;;;;;3.90;2.60;;;22.70;27.00;;;;;;6127176;28;80456;-65
2021/03/22 04:36:37;;;;;;;5.53;2.78;;;22.70;26.80;;;;;;6129034;28;80818;-65
2021/03/22 04:39:37;;;;;;;3.80;2.50;;;22.70;26.70;;;;;;6129502;28;80526;-64
2021/03/22 04:42:38;;;;;;;5.35;2.70;;;22.80;26.60;;;;;;6131249;28;80997;-65
2021/03/22 04:45:38;;;;;;;6.28;2.83;;;22.80;26.60;;;;;;6130375;28;80305;-65
2021/03/22 04:48:39;;;;;;;4.82;3.08;;;22.80;26.50;;;;;;6129012;28;84009;-65
2021/03/22 04:51:40;;;;;;;4.63;2.78;;;22.90;26.50;;;;;;6129542;28;80831;-65
2021/03/22 04:54:40;;;;;;;4.38;3.00;;;22.90;26.40;;;;;;6122481;28;80380;-66
2021/03/22 04:57:41;;;;;;;7.30;3.83;;;22.90;26.30;;;;;;6126312;28;81319;-65
2021/03/22 05:00:41;;;;;;;5.00;2.90;;;22.90;26.30;;;;;;6128694;28;80507;-65
2021/03/22 05:03:42;;;;;;;4.40;2.60;;;22.90;26.20;;;;;;6128896;28;80860;-67
2021/03/22 05:06:42;;;;;;;6.65;3.05;;;22.90;26.20;;;;;;6124690;28;80515;-68
2021/03/22 05:09:43;;;;;;;6.13;2.85;;;22.90;26.20;;;;;;6129536;28;81167;-65
2021/03/22 05:12:44;;;;;;;4.30;2.92;;;22.90;26.10;;;;;;6129573;28;80834;-65
2021/03/22 05:15:44;;;;;;;4.05;2.55;;;22.90;26.10;;;;;;6125424;28;82942;-64
2021/03/22 05:18:45;;;;;;;5.47;2.88;;;23.00;26.20;;;;;;6132374;28;80926;-66
2021/03/22 05:21:45;;;;;;;5.10;2.92;;;23.00;26.20;;;;;;6108355;28;81652;-65
2021/03/22 05:24:46;;;;;;;5.53;3.15;;;22.90;26.30;;;;;;6133102;28;81099;-65
2021/03/22 05:27:46;;;;;;;3.67;2.67;;;23.00;26.90;;;;;;6119406;28;80616;-64
2021/03/22 05:30:47;;;;;;;11.52;2.42;;;23.00;27.50;;;;;;6133675;28;81483;-62
2021/03/22 05:33:47;;;;;;;5.18;2.80;;;23.00;27.30;;;;;;6112201;28;81004;-64
2021/03/22 05:36:48;;;;;;;7.90;3.30;;;23.00;27.10;;;;;;6126517;28;80945;-63
2021/03/22 05:39:49;;;;;;;5.43;2.92;;;23.00;26.90;;;;;;6131393;28;80423;-64
2021/03/22 05:42:49;;;;;;;3.92;2.78;;;23.00;27.10;;;;;;6132054;28;82699;-65
2021/03/22 05:45:50;;;;;;;4.95;2.88;;;23.00;27.30;;;;;;6131818;28;80242;-65
2021/03/22 05:48:50;;;;;;;7.40;3.35;;;23.00;27.20;;;;;;6133338;28;80244;-64
2021/03/22 05:51:51;;;;;;;4.72;2.60;;;23.10;27.40;;;;;;6131039;28;80982;-65
2021/03/22 05:54:52;;;;;;;5.70;2.83;;;23.00;27.40;;;;;;6131813;28;81043;-65
2021/03/22 05:57:52;;;;;;;9.07;3.15;;;23.10;27.40;;;;;;6131454;28;80607;-65
2021/03/22 06:00:53;;;;;;;5.15;3.22;;;23.00;27.20;;;;;;6131812;28;80815;-65
2021/03/22 06:03:54;;;;;;;6.13;3.05;;;23.10;27.10;;;;;;6121898;28;81150;-64
2021/03/22 06:06:54;;;;;;;5.78;3.25;;;23.10;27.10;;;;;;6126351;28;83060;-65
2021/03/22 06:09:55;;;;;;;7.68;3.20;;;23.10;27.30;;;;;;6130907;28;82647;-65
2021/03/22 06:12:55;;;;;;;7.00;3.15;;;23.00;27.30;;;;;;6113951;28;83163;-66
2021/03/22 06:15:56;;;;;;;5.43;3.40;;;23.10;27.80;;;;;;6126598;28;81297;-66
2021/03/22 06:18:56;;;;;;;7.40;3.20;;;23.00;27.70;;;;;;6131326;28;80810;-63
2021/03/22 06:21:57;;;;;;;9.57;3.60;;;23.00;28.40;;;;;;6129780;28;81096;-64
2021/03/22 06:24:58;;;;;;;8.25;3.97;;;23.00;28.80;;;;;;6129459;28;80454;-63
2021/03/22 06:27:58;;;;;;;7.45;3.28;;;23.00;29.10;;;;;;6129389;28;80487;-64
2021/03/22 06:30:59;;;;;;;12.25;3.88;;;23.00;29.50;;;;;;6130509;28;80699;-65
2021/03/22 06:33:59;;;;;;;12.02;4.00;;;23.10;29.20;;;;;;6130630;28;82808;-65
2021/03/22 06:37:00;;;;;;;8.23;3.90;;;23.10;29.40;;;;;;6123956;28;81536;-67
2021/03/22 06:40:01;;;;;;;11.35;4.30;;;23.10;29.50;;;;;;6130991;28;80705;-65
2021/03/22 06:43:02;;;;;;;6.50;3.40;;;23.10;29.50;;;;;;6130025;28;81021;-65
2021/03/22 06:46:03;;;;;;;7.90;4.00;;;23.10;29.70;;;;;;6125375;28;80583;-65
2021/03/22 06:49:03;;;;;;;8.38;3.30;;;23.10;29.70;;;;;;6130239;28;81833;-66
2021/03/22 06:52:04;;;;;;;4.88;3.42;;;23.10;29.90;;;;;;6126743;28;80781;-64
2021/03/22 06:55:05;;;;;;;6.40;3.28;;;23.10;29.40;;;;;;6108513;28;80435;-67
2021/03/22 06:58:05;;;;;;;7.10;3.92;;;23.20;29.30;;;;;;6120143;28;82834;-64
2021/03/22 07:01:06;;;;;;;8.50;4.10;;;23.10;29.10;;;;;;6108923;28;80862;-64
2021/03/22 07:04:06;;;;;;;8.88;4.05;;;23.20;28.90;;;;;;6129303;28;80623;-65
2021/03/22 07:07:07;;;;;;;8.23;4.07;;;23.20;29.00;;;;;;6124792;28;81194;-65
2021/03/22 07:10:08;;;;;;;8.48;3.50;;;23.20;29.00;;;;;;6128704;28;80605;-67
2021/03/22 07:13:08;;;;;;;5.40;3.38;;;23.20;29.00;;;;;;6127837;28;80780;-66
2021/03/22 07:16:09;;;;;;;5.85;3.30;;;23.20;28.50;;;;;;6126003;28;80952;-67
2021/03/22 07:19:09;;;;;;;6.35;3.45;;;23.10;28.50;;;;;;6129638;28;90261;-71
2021/03/22 07:22:10;;;;;;;8.38;3.88;;;23.10;28.50;;;;;;6131214;28;80528;-66
2021/03/22 07:25:10;;;;;;;7.13;3.80;;;23.20;28.40;;;;;;6128595;28;80775;-68
2021/03/22 07:28:11;;;;;;;6.97;3.50;;;23.10;28.30;;;;;;6135627;28;81475;-67
2021/03/22 07:31:11;;;;;;;6.05;3.78;;;23.10;28.50;;;;;;6128613;28;80737;-68
2021/03/22 07:34:13;;;;;;;10.00;3.78;;;23.10;28.40;;;;;;6128717;28;81816;-68
2021/03/22 07:37:13;;;;;;;6.32;3.42;;;23.10;28.40;;;;;;6128760;28;80599;-66
2021/03/22 07:40:14;;;;;;;6.03;3.53;;;23.00;28.60;;;;;;6125684;28;80741;-66
2021/03/22 07:43:15;;;;;;;6.25;3.00;;;23.10;28.40;;;;;;6127992;28;81681;-65
2021/03/22 07:46:15;;;;;;;7.60;4.28;;;23.10;28.30;;;;;;6129038;28;80178;-65
2021/03/22 07:49:16;;;;;;;7.35;3.60;;;23.10;28.40;;;;;;6129934;28;80694;-66
2021/03/22 07:52:17;;;;;;;7.13;3.58;;;23.10;28.50;;;;;;6127360;28;80529;-66
2021/03/22 07:55:17;;;;;;;6.82;2.97;;;23.20;28.70;;;;;;6110653;28;80856;-64
2021/03/22 07:58:18;;;;;;;5.72;3.45;;;23.10;28.70;;;;;;6128140;28;80591;-65
2021/03/22 08:01:18;;;;;;;8.18;3.78;;;23.20;28.70;;;;;;6128608;28;81500;-65
2021/03/22 08:04:19;;;;;;;6.68;3.08;;;23.20;28.80;;;;;;6129152;28;80804;-65
2021/03/22 08:07:20;;;;;;;8.27;3.35;;;23.20;30.40;;;;;;6127640;28;81312;-65
2021/03/22 08:10:20;;;;;;;6.97;3.35;;;23.20;31.50;;;;;;6126879;28;80635;-64
2021/03/22 08:13:21;;;;;;;6.35;3.28;;;23.20;30.50;;;;;;6128775;28;80592;-66
2021/03/22 08:16:21;;;;;;;5.05;3.10;;;23.30;31.70;;;;;;6127156;28;81402;-65
2021/03/22 08:19:22;;;;;;;9.00;3.22;;;23.20;32.30;;;;;;6112714;28;83559;-65
2021/03/22 08:22:22;;;;;;;6.78;3.33;;;23.30;31.50;;;;;;6109808;28;80407;-64
2021/03/22 08:25:23;;;;;;;6.22;3.40;;;23.30;33.70;;;;;;6121900;28;81726;-65
2021/03/22 08:28:23;;;;;;;5.60;3.40;;;23.30;29.80;;;;;;6100222;28;80353;-65
2021/03/22 08:31:24;;;;;;;5.88;3.50;;;23.20;29.20;;;;;;6125454;28;80560;-63
2021/03/22 08:34:25;;;;;;;8.05;3.00;;;23.10;29.20;;;;;;6125151;28;80885;-63
2021/03/22 08:37:25;;;;;;;5.45;2.60;;;23.00;28.80;;;;;;6127228;28;83611;-66
2021/03/22 08:40:26;;;;;;;5.25;2.47;;;22.90;28.10;;;;;;6127046;28;80626;-64
2021/03/22 08:43:27;;;;;;;8.48;3.03;;;22.90;27.90;;;;;;6123108;28;81265;-65
2021/03/22 08:46:27;;;;;;;7.13;2.65;;;22.90;27.90;;;;;;6121868;28;82269;-66
2021/03/22 08:49:28;;;;;;;5.07;2.13;;;22.90;27.50;;;;;;6108137;28;80775;-66
2021/03/22 08:52:28;;;;;;;4.63;2.75;;;23.00;27.00;;;;;;6131207;28;82183;-67
2021/03/22 08:55:29;;;;;;;5.18;2.42;;;23.10;26.40;;;;;;6107694;28;91443;-65
2021/03/22 08:58:30;;;;;;;6.57;2.83;;;23.10;26.40;;;;;;6074656;28;213521;-67
2021/03/22 09:01:30;;;;;;;5.68;2.60;;;23.00;26.90;;;;;;6102758;28;80737;-66
2021/03/22 09:04:31;;;;;;;5.50;2.50;;;23.10;27.70;;;;;;6100218;28;81015;-65
2021/03/22 09:07:32;;;;;;;7.68;3.08;;;23.10;27.50;;;;;;6104654;28;81132;-66
2021/03/22 09:10:34;;;;;;;7.28;2.95;;;23.10;28.30;;;;;;6099679;28;89866;-65
2021/03/22 09:13:34;;;;;;;5.53;3.15;;;23.10;28.20;;;;;;6099748;28;81011;-65
2021/03/22 09:16:35;;;;;;;5.80;3.30;;;23.00;28.60;;;;;;6104655;28;81288;-66
2021/03/22 09:19:36;;;;;;;6.43;3.20;;;23.00;29.10;;;;;;6107223;28;81076;-66
2021/03/22 09:22:36;;;;;;;7.63;2.75;;;23.00;28.40;;;;;;6106523;28;80945;-65
2021/03/22 09:25:37;;;;;;;5.65;2.53;;;22.90;28.40;;;;;;6091480;28;82267;-65
2021/03/22 09:28:37;;;;;;;6.65;2.33;;;22.90;28.90;;;;;;6100742;28;84137;-66
2021/03/22 09:31:38;;;;;;;4.28;2.60;;;22.90;28.70;;;;;;6099672;28;81170;-64
2021/03/22 09:34:39;;;;;;;6.22;2.10;;;22.90;28.40;;;;;;6103697;28;80748;-66
2021/03/22 09:37:39;;;;;;;5.30;2.53;;;22.80;28.30;;;;;;6096556;28;80642;-65
2021/03/22 09:40:40;;;;;;;6.88;2.40;;;22.80;28.20;;;;;;6098571;28;81255;-65
2021/03/22 09:43:40;;;;;;;5.68;2.17;;;22.80;28.10;;;;;;6104585;28;80703;-66
2021/03/22 09:46:41;;;;;;;7.53;2.47;;;22.80;27.60;;;;;;6098251;28;80336;-66
2021/03/22 09:49:42;;;;;;;47.63;16.50;;;22.80;27.20;;;;;;6104366;28;83306;-66
2021/03/22 09:52:42;;;;;;;137.90;53.75;;;22.70;27.10;;;;;;6100246;28;83795;-65
2021/03/22 09:55:43;;;;;;;164.50;66.13;;;22.70;27.80;;;;;;6102042;28;83365;-65
2021/03/22 09:58:45;;;;;;;154.10;61.00;;;22.70;27.70;;;;;;6102781;28;83622;-65
2021/03/22 10:01:46;;;;;;;111.53;42.63;;;22.70;27.70;;;;;;6104516;28;83273;-66
2021/03/22 10:04:46;;;;;;;88.82;35.85;;;22.60;28.10;;;;;;6089713;28;84775;-65
2021/03/22 10:07:47;;;;;;;61.50;24.92;;;22.60;28.30;;;;;;6098604;28;83446;-64
2021/03/22 10:10:47;;;;;;;53.47;20.40;;;22.60;28.20;;;;;;6073596;28;84005;-64
2021/03/22 10:13:49;;;;;;;38.22;17.15;;;22.60;28.00;;;;;;6111269;28;85520;-65
2021/03/22 10:16:49;;;;;;;33.28;12.57;;;22.50;27.20;;;;;;6103930;28;83756;-65
2021/03/22 10:19:50;;;;;;;34.42;11.20;;;22.50;26.60;;;;;;6103254;28;84087;-65
2021/03/22 10:22:50;;;;;;;26.75;10.32;;;22.50;25.70;;;;;;6104114;28;83131;-65
2021/03/22 10:25:51;;;;;;;18.38;7.72;;;22.40;25.50;;;;;;6102107;28;83751;-66
2021/03/22 10:28:51;;;;;;;14.15;6.40;;;22.40;26.50;;;;;;6105474;28;82821;-65
2021/03/22 10:31:52;;;;;;;12.43;5.97;;;22.40;25.50;;;;;;6083090;28;81646;-65
2021/03/22 10:34:53;;;;;;;11.07;5.25;;;22.40;25.70;;;;;;6106472;28;81223;-66
2021/03/22 10:37:53;;;;;;;11.55;5.22;;;22.40;26.70;;;;;;6105975;28;80888;-67
2021/03/22 10:40:54;;;;;;;15.93;5.07;;;22.50;25.70;;;;;;6102083;28;81008;-66
2021/03/22 10:43:54;;;;;;;11.23;4.97;;;22.60;26.60;;;;;;6101522;28;80739;-66
2021/03/22 10:46:55;;;;;;;10.93;4.70;;;22.70;27.60;;;;;;6103980;28;81307;-65
2021/03/22 10:49:55;;;;;;;16.40;4.47;;;22.80;26.50;;;;;;6105838;28;80905;-66
2021/03/22 10:52:56;;;;;;;9.68;4.18;;;22.80;26.70;;;;;;6102005;28;80969;-66
2021/03/22 10:55:56;;;;;;;10.88;3.92;;;22.80;26.80;;;;;;6102056;28;80831;-66
2021/03/22 10:58:57;;;;;;;7.32;3.85;;;22.90;26.70;;;;;;6102126;28;81452;-67
2021/03/22 11:01:58;;;;;;;6.00;3.30;;;22.90;27.60;;;;;;6102881;28;84419;-66
2021/03/22 11:04:58;;;;;;;7.35;3.10;;;22.90;26.20;;;;;;6103545;28;80196;-66
2021/03/22 11:07:59;;;;;;;10.45;3.30;;;22.90;25.40;;;;;;6100301;28;81771;-67
2021/03/22 11:11:00;;;;;;;8.55;3.20;;;22.90;25.20;;;;;;6105372;28;83082;-67
2021/03/22 11:14:01;;;;;;;5.80;2.90;;;22.90;25.10;;;;;;6087061;28;81428;-65
2021/03/22 11:17:01;;;;;;;7.10;2.63;;;22.90;25.10;;;;;;6105739;28;80869;-66
2021/03/22 11:20:02;;;;;;;6.20;2.63;;;23.00;25.00;;;;;;6109493;28;80882;-66
2021/03/22 11:23:03;;;;;;;4.55;2.20;;;23.00;25.90;;;;;;6100908;28;82595;-65
2021/03/22 11:26:04;;;;;;;3.78;2.03;;;23.10;26.40;;;;;;6104622;28;80362;-66
2021/03/22 11:29:04;;;;;;;5.32;2.92;;;23.10;26.20;;;;;;6104865;28;81122;-65
2021/03/22 11:32:05;;;;;;;5.65;2.20;;;23.10;26.20;;;;;;6101825;28;80805;-67
2021/03/22 11:35:05;;;;;;;5.03;2.15;;;23.10;26.20;;;;;;6102967;28;81574;-66
2021/03/22 11:38:06;;;;;;;6.60;2.20;;;23.20;26.00;;;;;;6101039;28;80691;-66
2021/03/22 11:41:06;;;;;;;7.10;2.40;;;23.20;25.80;;;;;;6100904;28;81109;-66
2021/03/22 11:44:07;;;;;;;4.35;2.35;;;23.20;25.60;;;;;;6102399;28;80712;-65
2021/03/22 11:47:07;;;;;;;5.47;2.25;;;23.20;25.50;;;;;;6107057;28;80314;-65
2021/03/22 11:50:08;;;;;;;4.22;1.73;;;23.30;25.40;;;;;;6097857;28;80437;-63
2021/03/22 11:53:09;;;;;;;4.75;2.47;;;23.30;25.30;;;;;;6099317;28;81867;-65
2021/03/22 11:56:09;;;;;;;3.85;2.15;;;23.30;25.20;;;;;;6105134;28;81435;-63
2021/03/22 11:59:16;;;;;;;2.70;1.70;;;23.30;25.10;;;;;;6104291;28;81437;-62
2021/03/22 12:02:18;;;;;;;2.88;1.92;;;23.30;25.10;;;;;;6102024;28;80589;-64
2021/03/22 12:05:19;;;;;;;3.58;1.95;;;23.30;25.10;;;;;;6106145;28;81233;-64
2021/03/22 12:08:19;;;;;;;2.47;1.50;;;23.30;25.00;;;;;;6086955;28;81802;-64
2021/03/22 12:11:20;;;;;;;2.85;1.88;;;23.30;24.90;;;;;;6089974;28;83297;-62
2021/03/22 12:14:21;;;;;;;4.30;1.85;;;23.30;25.00;;;;;;6104311;28;81234;-63
2021/03/22 12:17:21;;;;;;;4.13;1.70;;;23.30;25.00;;;;;;6101114;28;80360;-64
2021/03/22 12:20:22;;;;;;;7.05;1.83;;;23.30;25.00;;;;;;6102499;28;80821;-64
2021/03/22 12:23:22;;;;;;;3.95;1.98;;;23.30;25.10;;;;;;6101881;28;89445;-63
2021/03/22 12:26:23;;;;;;;4.70;1.80;;;23.30;25.10;;;;;;6102991;28;80740;-63
2021/03/22 12:29:23;;;;;;;5.25;2.42;;;23.30;25.10;;;;;;6104149;28;80603;-64
2021/03/22 12:32:24;;;;;;;3.35;1.92;;;23.40;25.20;;;;;;6101280;28;80668;-63
2021/03/22 12:35:25;;;;;;;3.67;2.00;;;23.30;25.20;;;;;;6103151;28;80268;-63
2021/03/22 12:38:25;;;;;;;4.95;1.75;;;23.30;25.20;;;;;;6101538;28;81155;-64
2021/03/22 12:41:26;;;;;;;4.75;1.98;;;23.40;27.00;;;;;;6103939;28;81346;-65
2021/03/22 12:44:26;;;;;;;3.50;2.15;;;23.40;27.10;;;;;;6101690;28;81033;-64
2021/03/22 12:47:27;;;;;;;3.28;1.60;;;23.40;27.30;;;;;;6102903;28;80537;-63
2021/03/22 12:50:28;;;;;;;2.55;1.65;;;23.40;27.00;;;;;;6102735;28;82031;-64
2021/03/22 12:53:28;;;;;;;6.35;1.95;;;23.40;27.30;;;;;;6100364;28;80513;-64
2021/03/22 12:56:30;;;;;;;3.15;1.80;;;23.40;27.70;;;;;;6104256;28;81534;-63
2021/03/22 12:59:30;;;;;;;4.32;2.03;;;23.40;27.80;;;;;;6101936;28;81609;-63
2021/03/22 13:02:33;;;;;;;5.10;2.13;;;23.40;26.80;;;;;;6103579;28;80539;-64
2021/03/22 13:05:34;;;;;;;6.53;2.30;;;23.40;27.80;;;;;;6104198;28;81572;-65
2021/03/22 13:08:35;;;;;;;6.57;2.67;;;23.40;29.20;;;;;;6103983;28;80663;-64
2021/03/22 13:11:35;;;;;;;5.93;2.47;;;23.40;28.60;;;;;;6101863;28;83396;-65
2021/03/22 13:14:36;;;;;;;6.40;2.55;;;23.40;29.60;;;;;;6099649;28;81746;-64
2021/03/22 13:17:36;;;;;;;8.48;2.88;;;23.40;28.60;;;;;;6102375;28;81439;-66
2021/03/22 13:20:37;;;;;;;5.47;2.45;;;23.50;28.90;;;;;;6104220;28;80921;-66
2021/03/22 13:23:38;;;;;;;5.25;2.58;;;23.40;30.00;;;;;;6104006;28;82301;-67
2021/03/22 13:26:38;;;;;;;5.47;1.98;;;23.40;29.90;;;;;;6101773;28;80206;-67
2021/03/22 13:29:39;;;;;;;5.30;2.55;;;23.40;30.10;;;;;;6101566;28;90900;-67
2021/03/22 13:32:39;;;;;;;5.10;2.13;;;23.40;30.10;;;;;;6101368;28;82426;-66
2021/03/22 13:35:40;;;;;;;5.88;2.25;;;23.40;30.00;;;;;;6085559;28;82259;-68
2021/03/22 13:38:40;;;;;;;4.47;2.13;;;23.50;30.10;;;;;;6092470;28;80821;-67
2021/03/22 13:41:44;;;;;;;2.75;2.05;;;23.50;30.00;;;;;;6093195;28;80416;-65
2021/03/22 13:44:45;;;;;;;6.35;2.30;;;23.50;29.60;;;;;;6108540;28;80508;-66
2021/03/22 13:47:45;;;;;;;5.07;2.15;;;23.50;30.20;;;;;;6107589;28;80750;-65
2021/03/22 13:50:46;;;;;;;3.90;1.85;;;23.50;29.60;;;;;;6108700;28;81772;-64
2021/03/22 13:53:46;;;;;;;5.43;2.17;;;23.50;29.70;;;;;;6107351;28;81068;-65
2021/03/22 13:56:47;;;;;;;6.30;2.25;;;23.50;29.20;;;;;;6106912;28;80854;-63
2021/03/22 13:59:48;;;;;;;2.92;1.70;;;23.50;29.40;;;;;;6107859;28;80479;-66
2021/03/22 14:02:48;;;;;;;3.67;1.95;;;23.50;28.90;;;;;;6105474;28;81037;-65
2021/03/22 14:05:51;;;;;;;3.50;1.73;;;23.50;29.10;;;;;;6101608;28;80913;-64
2021/03/22 14:08:51;;;;;;;3.45;2.05;;;23.50;28.90;;;;;;6101352;28;80677;-63
2021/03/22 14:11:52;;;;;;;4.80;2.10;;;23.40;29.00;;;;;;6106479;28;80841;-63
2021/03/22 14:14:53;;;;;;;5.00;1.92;;;23.40;29.30;;;;;;6106248;28;80725;-65
2021/03/22 14:17:53;;;;;;;6.43;2.95;;;23.40;28.70;;;;;;6107001;28;82002;-65
2021/03/22 14:20:56;;;;;;;4.85;2.15;;;23.40;28.60;;;;;;6100637;28;83295;-66
2021/03/22 14:23:57;;;;;;;3.92;1.75;;;23.40;28.50;;;;;;6102894;28;81571;-67
2021/03/22 14:26:57;;;;;;;3.22;1.98;;;23.40;28.70;;;;;;6092009;28;81079;-65
2021/03/22 14:29:58;;;;;;;4.40;1.90;;;23.40;28.40;;;;;;6105910;28;80940;-65
2021/03/22 14:32:58;;;;;;;4.43;2.00;;;23.40;28.10;;;;;;6100607;28;80672;-66
2021/03/22 14:35:59;;;;;;;4.10;2.13;;;23.40;28.10;;;;;;6103611;28;84995;-67
2021/03/22 14:39:00;;;;;;;4.15;1.83;;;23.40;27.90;;;;;;6104615;28;82220;-65
2021/03/22 14:42:01;;;;;;;3.70;1.92;;;23.40;28.20;;;;;;6105913;28;80601;-67
2021/03/22 14:45:01;;;;;;;4.05;2.10;;;23.40;28.20;;;;;;6106066;28;80506;-66
2021/03/22 14:48:02;;;;;;;3.70;1.80;;;23.30;28.00;;;;;;6104831;28;80855;-67
2021/03/22 14:51:02;;;;;;;2.67;1.77;;;23.30;28.00;;;;;;6104529;28;83165;-64
2021/03/22 14:54:03;;;;;;;5.35;2.38;;;23.30;28.00;;;;;;6106095;28;80558;-66
2021/03/22 14:57:04;;;;;;;2.63;1.75;;;23.30;28.00;;;;;;6081933;28;82915;-66
2021/03/22 15:00:04;;;;;;;53.65;22.05;;;23.30;27.60;;;;;;6105516;28;80614;-66
2021/03/22 15:03:05;;;;;;;336.42;131.43;;;23.30;27.90;;;;;;6102538;28;84050;-66
2021/03/22 15:06:05;;;;;;;563.63;230.07;;;23.30;28.00;;;;;;6101196;28;85427;-64
2021/03/22 15:09:06;;;;;;;334.85;125.63;;;23.30;28.10;;;;;;6099526;28;86526;-65
2021/03/22 15:12:07;;;;;;;280.00;105.55;;;23.30;28.00;;;;;;6096853;28;88546;-66
2021/03/22 15:15:08;;;;;;;229.80;88.15;;;23.30;27.90;;;;;;6093663;28;85775;-66
2021/03/22 15:18:08;;;;;;;208.02;79.05;;;23.20;27.90;;;;;;6099146;28;86561;-65
2021/03/22 15:21:09;;;;;;;173.63;66.10;;;23.20;28.00;;;;;;6100836;28;83509;-65
2021/03/22 15:24:09;;;;;;;147.02;59.72;;;23.20;27.70;;;;;;6099837;28;83554;-65
2021/03/22 15:27:10;;;;;;;133.50;48.92;;;23.20;28.30;;;;;;6101832;28;84963;-66
2021/03/22 15:30:10;;;;;;;132.75;47.08;;;23.20;27.70;;;;;;6102097;28;82988;-65
2021/03/22 15:33:11;;;;;;;107.68;40.17;;;23.20;27.90;;;;;;6099442;28;84378;-65
2021/03/22 15:36:12;;;;;;;93.05;37.72;;;23.20;27.80;;;;;;6097417;28;84444;-65